Time;durP1;ratioP1;P1;durP2;ratioP2;P2;SDS_P1;SDS_P2;PMS_P1;PMS_P2;Temp;Humidity;BMP_temperature;BMP_pressure;BME280_temperature;BME280_humidity;BME280_pressure;Samples;Min_cycle;Max_cycle;Signal;HPM_P1;HPM_P2
2021/09/05 00:00:28;;;;;;;5.88;3.47;;;9.50;99.90;;;;;;5092763;28;20023;-81
2021/09/05 00:02:54;;;;;;;6.38;4.00;;;9.50;99.90;;;;;;5091872;28;20552;-80
2021/09/05 00:05:20;;;;;;;6.63;3.65;;;9.50;99.90;;;;;;5089159;28;20134;-80
2021/09/05 00:07:45;;;;;;;7.53;3.30;;;9.50;99.90;;;;;;5091339;28;20059;-80
2021/09/05 00:10:12;;;;;;;7.55;3.97;;;9.40;99.90;;;;;;5093189;28;20036;-80
2021/09/05 00:12:37;;;;;;;7.22;3.90;;;9.40;99.90;;;;;;5093381;28;20036;-80
2021/09/05 00:15:06;;;;;;;7.22;3.92;;;9.40;99.90;;;;;;5092106;28;20023;-80
2021/09/05 00:17:32;;;;;;;6.35;3.85;;;9.40;99.90;;;;;;5089694;28;20089;-83
2021/09/05 00:19:57;;;;;;;6.30;3.25;;;9.30;99.90;;;;;;5099477;28;20470;-80
2021/09/05 00:22:23;;;;;;;4.43;3.60;;;9.30;99.90;;;;;;5079462;28;20108;-80
2021/09/05 00:24:49;;;;;;;8.52;3.75;;;9.30;99.90;;;;;;5080651;28;20086;-79
2021/09/05 00:27:15;;;;;;;7.35;3.67;;;9.30;99.90;;;;;;5088564;28;20509;-81
2021/09/05 00:29:40;;;;;;;6.60;3.40;;;9.20;99.90;;;;;;5084687;28;20119;-81
2021/09/05 00:32:06;;;;;;;5.15;4.00;;;9.20;99.90;;;;;;5108480;28;20131;-80
2021/09/05 00:34:32;;;;;;;5.95;3.30;;;9.20;99.90;;;;;;5092052;28;20044;-80
2021/09/05 00:36:58;;;;;;;7.10;3.63;;;9.20;99.90;;;;;;5085051;28;20075;-80
2021/09/05 00:39:24;;;;;;;6.45;3.28;;;9.20;99.90;;;;;;5094269;28;20020;-80
2021/09/05 00:41:49;;;;;;;5.68;3.60;;;9.20;99.90;;;;;;5109093;28;20132;-80
2021/09/05 00:44:15;;;;;;;6.10;3.60;;;9.30;99.90;;;;;;5100450;28;20028;-80
2021/09/05 00:46:41;;;;;;;5.68;3.47;;;9.30;99.90;;;;;;5110811;27;20028;-81
2021/09/05 00:49:08;;;;;;;5.93;3.15;;;9.30;99.90;;;;;;5111070;28;20032;-80
2021/09/05 00:51:37;;;;;;;5.13;3.20;;;9.30;99.90;;;;;;5095399;28;20059;-80
2021/09/05 00:54:05;;;;;;;3.72;3.00;;;9.20;99.90;;;;;;5089344;28;20033;-80
2021/09/05 00:56:33;;;;;;;4.63;3.53;;;9.20;99.90;;;;;;5089705;28;21117;-80
2021/09/05 00:59:07;;;;;;;5.82;4.00;;;9.20;99.90;;;;;;5092978;28;20025;-80
2021/09/05 01:01:36;;;;;;;7.53;3.72;;;9.20;99.90;;;;;;5091314;28;20107;-80
2021/09/05 01:04:03;;;;;;;6.10;3.10;;;9.20;99.90;;;;;;5097093;28;20039;-80
2021/09/05 01:06:30;;;;;;;6.55;3.10;;;9.20;99.90;;;;;;5085172;28;20119;-80
2021/09/05 01:08:57;;;;;;;4.95;3.08;;;9.30;99.90;;;;;;5099348;28;20482;-80
2021/09/05 01:11:24;;;;;;;6.32;3.20;;;9.30;99.90;;;;;;5092554;28;20020;-80
2021/09/05 01:13:50;;;;;;;5.85;3.75;;;9.30;99.90;;;;;;5095579;28;20024;-80
2021/09/05 01:16:30;;;;;;;4.85;3.35;;;9.30;99.90;;;;;;5091124;28;20031;-80
2021/09/05 01:19:18;;;;;;;8.48;3.30;;;9.30;99.90;;;;;;5099335;28;20016;-80
2021/09/05 01:21:45;;;;;;;3.10;2.75;;;9.30;99.90;;;;;;5073273;28;20470;-80
2021/09/05 01:24:13;;;;;;;5.03;3.63;;;9.30;99.90;;;;;;5084174;28;20039;-80
2021/09/05 01:26:43;;;;;;;5.18;3.72;;;9.30;99.90;;;;;;5079325;28;20052;-80
2021/09/05 01:29:09;;;;;;;5.80;3.63;;;9.20;99.90;;;;;;5086385;28;20028;-80
2021/09/05 01:31:41;;;;;;;5.20;3.67;;;9.20;99.90;;;;;;5095561;28;20470;-80
2021/09/05 01:34:08;;;;;;;4.47;3.08;;;9.30;99.90;;;;;;5073117;28;20107;-80
2021/09/05 01:36:36;;;;;;;4.60;3.45;;;9.30;99.90;;;;;;5074284;28;20024;-80
2021/09/05 01:39:03;;;;;;;5.70;3.85;;;9.30;99.90;;;;;;5072875;28;20025;-80
2021/09/05 01:41:29;;;;;;;7.75;3.60;;;9.20;99.90;;;;;;5082073;28;20440;-80
2021/09/05 01:43:59;;;;;;;5.63;3.88;;;9.20;99.90;;;;;;5093063;28;20027;-79
2021/09/05 01:46:25;;;;;;;3.50;2.92;;;9.20;99.90;;;;;;5103798;28;20499;-80
2021/09/05 01:48:51;;;;;;;5.85;3.50;;;9.20;99.90;;;;;;5100210;28;20037;-80
2021/09/05 01:51:16;;;;;;;5.68;3.50;;;9.20;99.90;;;;;;5094200;28;20024;-80
2021/09/05 01:53:42;;;;;;;9.88;4.00;;;9.10;99.90;;;;;;5108487;28;20016;-80
2021/09/05 01:56:08;;;;;;;7.28;3.80;;;9.20;99.90;;;;;;5096986;28;20028;-79
2021/09/05 01:58:33;;;;;;;7.60;3.70;;;9.20;99.90;;;;;;5075914;28;20024;-79
2021/09/05 02:00:59;;;;;;;3.72;3.38;;;9.10;99.90;;;;;;5073445;28;20355;-80
2021/09/05 02:03:25;;;;;;;5.78;3.03;;;9.10;99.90;;;;;;5089402;28;20422;-80
2021/09/05 02:05:50;;;;;;;5.03;3.63;;;9.10;99.90;;;;;;5082166;28;20103;-80
2021/09/05 02:08:16;;;;;;;6.35;3.90;;;9.00;99.90;;;;;;5075026;28;20031;-80
2021/09/05 02:10:42;;;;;;;4.47;3.72;;;9.00;99.90;;;;;;5080535;28;20025;-80
2021/09/05 02:13:07;;;;;;;5.60;3.50;;;9.00;99.90;;;;;;5090931;28;20026;-79
2021/09/05 02:15:33;;;;;;;7.40;4.18;;;9.00;99.90;;;;;;5116208;27;20073;-80
2021/09/05 02:17:58;;;;;;;7.20;3.90;;;9.00;99.90;;;;;;5090672;28;20016;-80
2021/09/05 02:20:24;;;;;;;5.32;4.00;;;9.00;99.90;;;;;;5085609;28;20491;-80
2021/09/05 02:22:50;;;;;;;7.68;3.90;;;9.00;99.90;;;;;;5075455;28;20103;-81
2021/09/05 02:25:15;;;;;;;6.30;3.38;;;9.00;99.90;;;;;;5093573;28;20042;-80
2021/09/05 02:27:41;;;;;;;7.15;3.78;;;9.00;99.90;;;;;;5109254;28;20020;-80
2021/09/05 02:30:09;;;;;;;7.05;3.40;;;9.00;99.90;;;;;;5087540;28;20044;-81
2021/09/05 02:32:35;;;;;;;6.97;3.90;;;9.00;99.90;;;;;;5109146;28;20020;-81
2021/09/05 02:35:00;;;;;;;6.65;3.88;;;9.00;99.90;;;;;;5087253;28;20570;-81
2021/09/05 02:37:26;;;;;;;7.72;3.85;;;9.00;99.90;;;;;;5109035;28;20027;-81
2021/09/05 02:39:51;;;;;;;6.43;4.78;;;8.90;99.90;;;;;;5077825;28;20060;-81
2021/09/05 02:42:17;;;;;;;6.32;4.00;;;8.90;99.90;;;;;;5082349;28;20032;-81
2021/09/05 02:44:43;;;;;;;5.40;3.67;;;8.90;99.90;;;;;;5089016;28;20020;-81
2021/09/05 02:47:08;;;;;;;6.68;4.18;;;8.90;99.90;;;;;;5109512;28;20552;-81
2021/09/05 02:49:34;;;;;;;5.75;4.03;;;8.80;99.90;;;;;;5093401;28;20040;-81
2021/09/05 02:52:00;;;;;;;6.57;4.47;;;8.80;99.90;;;;;;5093221;28;20390;-81
2021/09/05 02:54:25;;;;;;;8.18;4.05;;;8.70;99.90;;;;;;5103800;27;20110;-81
2021/09/05 02:56:51;;;;;;;7.03;4.05;;;8.70;99.90;;;;;;5082185;28;20067;-81
2021/09/05 02:59:17;;;;;;;8.65;4.10;;;8.60;99.90;;;;;;5103255;28;20027;-81
2021/09/05 03:01:42;;;;;;;5.18;4.30;;;8.60;99.90;;;;;;5112053;28;20024;-81
2021/09/05 03:04:08;;;;;;;12.05;4.55;;;8.50;99.90;;;;;;5099732;28;20035;-81
2021/09/05 03:06:33;;;;;;;5.95;4.40;;;8.50;99.90;;;;;;5108350;28;20050;-81
2021/09/05 03:08:59;;;;;;;6.22;3.80;;;8.50;99.90;;;;;;5093135;28;20046;-81
2021/09/05 03:11:25;;;;;;;7.38;4.03;;;8.50;99.90;;;;;;5095770;28;20469;-81
2021/09/05 03:13:50;;;;;;;5.72;4.10;;;8.50;99.90;;;;;;5095441;28;20059;-81
2021/09/05 03:16:16;;;;;;;8.50;3.85;;;8.40;99.90;;;;;;5108565;28;20367;-81
2021/09/05 03:18:41;;;;;;;7.38;3.55;;;8.50;99.90;;;;;;5108517;28;20035;-81
2021/09/05 03:21:07;;;;;;;7.85;3.95;;;8.50;99.90;;;;;;5108515;28;20035;-81
2021/09/05 03:23:33;;;;;;;5.25;3.47;;;8.50;99.90;;;;;;5092924;28;20024;-81
2021/09/05 03:25:58;;;;;;;4.72;3.22;;;8.50;99.90;;;;;;5115744;28;20027;-81
2021/09/05 03:28:24;;;;;;;4.45;3.58;;;8.50;99.90;;;;;;5109092;28;20027;-81
2021/09/05 03:30:50;;;;;;;6.70;3.22;;;8.50;99.90;;;;;;5078863;28;20390;-81
2021/09/05 03:33:15;;;;;;;5.35;3.30;;;8.40;99.90;;;;;;5082952;28;20397;-81
2021/09/05 03:35:41;;;;;;;5.13;3.70;;;8.40;99.90;;;;;;5096711;28;20055;-81
2021/09/05 03:38:07;;;;;;;4.25;3.10;;;8.40;99.90;;;;;;5086377;28;20482;-81
2021/09/05 03:40:33;;;;;;;4.90;3.38;;;8.40;99.90;;;;;;5097744;28;20115;-81
2021/09/05 03:42:59;;;;;;;6.97;4.18;;;8.40;99.90;;;;;;5102776;28;20024;-81
2021/09/05 03:45:25;;;;;;;5.57;3.50;;;8.40;99.90;;;;;;5095702;28;20016;-81
2021/09/05 03:47:50;;;;;;;5.15;3.35;;;8.30;99.90;;;;;;5095074;28;20512;-81
2021/09/05 03:50:16;;;;;;;4.72;3.20;;;8.30;99.90;;;;;;5093924;28;20032;-81
2021/09/05 03:52:42;;;;;;;6.00;4.25;;;8.30;99.90;;;;;;5092276;28;20024;-81
2021/09/05 03:55:09;;;;;;;4.55;2.70;;;8.30;99.90;;;;;;5076214;28;20111;-81
2021/09/05 03:57:34;;;;;;;3.75;3.13;;;8.30;99.90;;;;;;5089565;28;20385;-81
2021/09/05 04:00:00;;;;;;;9.90;4.05;;;8.30;99.90;;;;;;5111988;28;20020;-81
2021/09/05 04:02:26;;;;;;;5.07;3.72;;;8.30;99.90;;;;;;5086662;28;20018;-81
2021/09/05 04:04:51;;;;;;;3.25;2.95;;;8.20;99.90;;;;;;5084312;28;20111;-81
2021/09/05 04:07:20;;;;;;;3.42;3.10;;;8.20;99.90;;;;;;5073123;28;20021;-81
2021/09/05 04:12:29;;;;;;;5.03;3.92;;;8.20;99.90;;;;;;5101030;28;20170;-81
2021/09/05 04:14:55;;;;;;;7.78;3.50;;;8.20;99.90;;;;;;5093479;28;20103;-81
2021/09/05 04:17:20;;;;;;;4.43;3.20;;;8.30;99.90;;;;;;5093481;28;20469;-81
2021/09/05 04:19:46;;;;;;;5.25;3.50;;;8.30;99.90;;;;;;5105411;28;20023;-81
2021/09/05 04:22:12;;;;;;;4.93;3.35;;;8.30;99.90;;;;;;5072915;28;20021;-81
2021/09/05 04:24:37;;;;;;;8.32;3.65;;;8.30;99.90;;;;;;5072974;28;20039;-81
2021/09/05 04:27:03;;;;;;;5.63;3.40;;;8.30;99.90;;;;;;5071466;28;20486;-81
2021/09/05 04:29:29;;;;;;;6.53;3.67;;;8.30;99.90;;;;;;5081778;28;20040;-80
2021/09/05 04:31:54;;;;;;;4.22;3.28;;;8.30;99.90;;;;;;5084133;28;20039;-81
2021/09/05 04:34:20;;;;;;;5.13;3.40;;;8.40;99.90;;;;;;5090993;28;20103;-80
2021/09/05 04:36:46;;;;;;;7.10;3.63;;;8.30;99.90;;;;;;5105832;28;20030;-80
2021/09/05 04:39:11;;;;;;;6.78;3.83;;;8.40;99.90;;;;;;5090306;28;20032;-81
2021/09/05 04:41:37;;;;;;;5.45;3.40;;;8.40;99.90;;;;;;5093822;28;20038;-81
2021/09/05 04:44:03;;;;;;;4.38;3.40;;;8.50;99.90;;;;;;5098437;28;20107;-81
2021/09/05 04:46:29;;;;;;;6.25;3.08;;;8.50;99.90;;;;;;5095462;28;20104;-81
2021/09/05 04:48:54;;;;;;;3.85;3.35;;;8.60;99.90;;;;;;5105855;28;20492;-80
2021/09/05 04:51:20;;;;;;;5.30;3.38;;;8.60;99.90;;;;;;5114591;28;20024;-80
2021/09/05 04:53:45;;;;;;;6.13;3.50;;;8.70;99.90;;;;;;5105067;28;20027;-80
2021/09/05 04:56:14;;;;;;;6.13;3.17;;;8.70;99.90;;;;;;5087250;28;20035;-80
2021/09/05 04:58:40;;;;;;;3.30;2.65;;;8.80;99.90;;;;;;5095662;28;20111;-80
2021/09/05 05:01:06;;;;;;;5.07;3.30;;;8.90;99.90;;;;;;5098017;28;20046;-81
2021/09/05 05:03:31;;;;;;;5.93;3.00;;;9.00;99.90;;;;;;5083014;28;20485;-80
2021/09/05 05:05:57;;;;;;;4.60;3.15;;;9.00;99.90;;;;;;5086634;28;20024;-80
2021/09/05 05:08:22;;;;;;;6.00;3.95;;;9.20;99.90;;;;;;5085566;28;20020;-81
2021/09/05 05:10:48;;;;;;;6.43;3.53;;;9.30;99.90;;;;;;5087364;28;20145;-81
2021/09/05 05:13:14;;;;;;;7.88;3.60;;;9.40;99.90;;;;;;5082588;28;20077;-80
2021/09/05 05:15:39;;;;;;;5.82;3.83;;;9.40;99.90;;;;;;5083396;28;20413;-80
2021/09/05 05:18:05;;;;;;;6.50;3.50;;;9.50;99.90;;;;;;5096045;28;20015;-81
2021/09/05 05:20:31;;;;;;;5.28;3.22;;;9.70;99.90;;;;;;5085470;28;20983;-81
2021/09/05 05:22:57;;;;;;;6.10;3.55;;;9.80;99.90;;;;;;5096001;28;20512;-80
2021/09/05 05:25:22;;;;;;;3.35;2.88;;;9.90;99.90;;;;;;5078715;28;20060;-81
2021/09/05 05:27:48;;;;;;;3.20;2.63;;;10.10;99.90;;;;;;5078642;28;20032;-81
2021/09/05 05:30:13;;;;;;;2.92;2.45;;;10.20;99.90;;;;;;5093436;28;20501;-81
2021/09/05 05:32:39;;;;;;;5.07;3.28;;;10.40;99.90;;;;;;5079855;28;20082;-81
2021/09/05 05:35:05;;;;;;;4.72;2.80;;;10.50;99.90;;;;;;5079694;28;20032;-81
2021/09/05 05:37:31;;;;;;;3.50;2.60;;;10.70;99.90;;;;;;5079871;28;20039;-81
2021/09/05 05:39:57;;;;;;;4.60;2.70;;;10.80;99.90;;;;;;5093752;28;20024;-80
2021/09/05 05:42:22;;;;;;;3.88;2.80;;;10.90;99.90;;;;;;5079473;28;20190;-81
2021/09/05 05:44:48;;;;;;;4.90;2.35;;;11.00;99.90;;;;;;5080245;28;20097;-81
2021/09/05 05:47:13;;;;;;;4.45;2.67;;;11.10;99.90;;;;;;5082593;28;20028;-81
2021/09/05 05:49:43;;;;;;;6.80;2.38;;;11.20;99.90;;;;;;5076266;28;20090;-81
2021/09/05 05:52:09;;;;;;;4.38;2.50;;;11.40;99.90;;;;;;5080017;28;20040;-81
2021/09/05 05:54:34;;;;;;;2.75;2.50;;;11.50;99.90;;;;;;5077956;28;20032;-81
2021/09/05 05:57:00;;;;;;;3.67;2.70;;;11.60;99.90;;;;;;5090803;28;20058;-81
2021/09/05 05:59:25;;;;;;;4.80;2.63;;;11.70;99.60;;;;;;5074772;28;20431;-81
2021/09/05 06:01:51;;;;;;;6.65;2.63;;;11.80;99.90;;;;;;5079782;28;20031;-80
2021/09/05 06:04:17;;;;;;;3.45;2.50;;;11.90;99.90;;;;;;5078838;28;20028;-81
2021/09/05 06:06:42;;;;;;;8.15;2.90;;;11.90;99.90;;;;;;5081142;28;20071;-81
2021/09/05 06:09:08;;;;;;;3.05;2.50;;;12.00;99.90;;;;;;5081118;28;20572;-81
2021/09/05 06:11:34;;;;;;;5.50;3.80;;;12.00;99.10;;;;;;5093865;27;20024;-81
2021/09/05 06:13:59;;;;;;;7.20;3.10;;;12.00;98.70;;;;;;5078683;28;20123;-81
2021/09/05 06:16:27;;;;;;;8.68;3.42;;;12.10;99.70;;;;;;5095159;28;20431;-81
2021/09/05 06:18:53;;;;;;;3.72;2.97;;;12.20;98.40;;;;;;5079589;28;20016;-81
2021/09/05 06:21:18;;;;;;;3.50;2.50;;;12.30;99.90;;;;;;5080904;28;20452;-80
2021/09/05 06:23:44;;;;;;;2.88;2.33;;;12.50;99.10;;;;;;5080112;28;20043;-83
2021/09/05 06:26:10;;;;;;;4.47;2.55;;;12.60;94.90;;;;;;5078390;28;20032;-81
2021/09/05 06:28:35;;;;;;;4.57;2.85;;;12.70;96.90;;;;;;5078816;28;20063;-81
2021/09/05 06:31:01;;;;;;;6.82;2.50;;;12.80;95.00;;;;;;5078371;28;20024;-81
2021/09/05 06:33:27;;;;;;;4.35;2.30;;;12.90;94.40;;;;;;5080825;28;20081;-81
2021/09/05 06:35:52;;;;;;;4.03;2.05;;;13.00;89.90;;;;;;5093234;28;20028;-81
2021/09/05 06:38:18;;;;;;;2.92;2.35;;;13.10;87.70;;;;;;5079018;28;20478;-80
2021/09/05 06:40:44;;;;;;;2.85;2.03;;;13.20;87.70;;;;;;5082255;28;20020;-81
2021/09/05 06:43:09;;;;;;;5.75;3.08;;;13.40;86.10;;;;;;5083476;28;20066;-80
2021/09/05 06:45:35;;;;;;;3.25;2.13;;;13.40;83.90;;;;;;5074173;28;20492;-80
2021/09/05 06:48:00;;;;;;;2.50;2.00;;;13.40;84.90;;;;;;5076960;28;20032;-80
2021/09/05 06:50:26;;;;;;;6.90;2.60;;;13.50;82.70;;;;;;5072967;28;20123;-81
2021/09/05 06:52:52;;;;;;;3.83;2.30;;;13.60;82.80;;;;;;5069936;28;20028;-82
2021/09/05 06:55:18;;;;;;;1.95;1.60;;;13.70;82.90;;;;;;5088954;28;20025;-80
2021/09/05 06:57:43;;;;;;;3.17;1.38;;;13.90;78.00;;;;;;5083310;28;20094;-82
2021/09/05 07:00:09;;;;;;;1.58;1.45;;;13.90;70.10;;;;;;5083316;28;20020;-82
2021/09/05 07:02:35;;;;;;;1.90;1.42;;;14.00;69.80;;;;;;5075987;28;20490;-82
2021/09/05 07:05:01;;;;;;;3.00;1.40;;;14.00;70.00;;;;;;5078623;28;20030;-81
2021/09/05 07:07:27;;;;;;;1.77;1.42;;;14.00;69.90;;;;;;5075613;28;20040;-81
2021/09/05 07:09:52;;;;;;;2.08;1.10;;;14.10;71.20;;;;;;5076330;28;20035;-81
2021/09/05 07:12:18;;;;;;;3.78;1.25;;;14.30;71.50;;;;;;5094255;27;20037;-80
2021/09/05 07:14:43;;;;;;;4.68;1.42;;;14.40;68.50;;;;;;5075424;28;20089;-81
2021/09/05 07:17:09;;;;;;;1.65;1.08;;;14.50;67.00;;;;;;5076026;28;20029;-82
2021/09/05 07:19:35;;;;;;;1.35;1.08;;;14.50;65.10;;;;;;5091020;28;20062;-81
2021/09/05 07:22:00;;;;;;;2.80;1.27;;;14.50;65.90;;;;;;5076060;28;20027;-81
2021/09/05 07:24:26;;;;;;;2.30;1.30;;;14.60;65.90;;;;;;5075023;28;20460;-81
2021/09/05 07:26:52;;;;;;;2.35;1.00;;;14.80;66.70;;;;;;5091004;28;20028;-81
2021/09/05 07:29:18;;;;;;;1.50;0.85;;;14.90;64.70;;;;;;5080177;28;20080;-82
2021/09/05 07:31:45;;;;;;;1.05;0.82;;;14.90;61.40;;;;;;5082542;28;20145;-81
2021/09/05 07:34:10;;;;;;;0.82;0.77;;;15.00;60.60;;;;;;5091288;28;20455;-80
2021/09/05 07:36:36;;;;;;;1.88;1.23;;;14.90;60.20;;;;;;5076649;28;20025;-81
2021/09/05 07:39:03;;;;;;;2.38;1.15;;;15.20;63.70;;;;;;5077716;28;20033;-82
2021/09/05 07:41:29;;;;;;;3.53;1.42;;;15.40;62.20;;;;;;5076747;28;20058;-81
2021/09/05 07:43:55;;;;;;;1.98;1.25;;;15.60;62.90;;;;;;5088976;28;20039;-81
2021/09/05 07:46:21;;;;;;;1.73;1.40;;;15.70;61.30;;;;;;5076764;28;20032;-81
2021/09/05 07:48:47;;;;;;;1.80;1.23;;;15.60;59.50;;;;;;5090503;28;20098;-81
2021/09/05 07:51:13;;;;;;;1.55;0.98;;;15.60;60.10;;;;;;5078735;28;20037;-82
2021/09/05 07:53:39;;;;;;;2.50;1.55;;;15.50;60.80;;;;;;5070471;28;20102;-82
2021/09/05 07:56:05;;;;;;;1.98;1.20;;;15.50;62.10;;;;;;5075564;28;20058;-81
2021/09/05 07:58:30;;;;;;;3.20;1.33;;;15.50;60.60;;;;;;5089707;28;20064;-82
2021/09/05 08:00:56;;;;;;;1.10;1.00;;;15.50;60.00;;;;;;5077672;28;20016;-82
2021/09/05 08:03:22;;;;;;;1.58;1.45;;;15.50;60.10;;;;;;5092905;28;20089;-82
2021/09/05 08:05:47;;;;;;;2.38;1.48;;;15.50;60.10;;;;;;5073936;28;20021;-82
2021/09/05 08:08:15;;;;;;;2.78;1.27;;;15.70;62.20;;;;;;5089306;28;20051;-82
2021/09/05 08:10:41;;;;;;;2.42;1.25;;;16.00;61.90;;;;;;5078759;28;20036;-86
2021/09/05 08:13:06;;;;;;;1.50;1.10;;;16.10;60.60;;;;;;5080505;28;20069;-83
2021/09/05 08:15:32;;;;;;;1.77;0.85;;;16.30;58.80;;;;;;5096807;28;20500;-84
2021/09/05 08:17:58;;;;;;;2.67;1.30;;;16.30;58.40;;;;;;5083310;28;20032;-83
2021/09/05 08:20:23;;;;;;;1.50;0.93;;;16.30;58.40;;;;;;5084346;28;20547;-84
2021/09/05 08:22:49;;;;;;;2.22;1.05;;;16.20;58.80;;;;;;5080905;28;20104;-85
2021/09/05 08:25:15;;;;;;;2.45;0.95;;;16.30;58.60;;;;;;5093994;28;20023;-86
2021/09/05 08:27:41;;;;;;;2.35;1.17;;;16.20;58.80;;;;;;5082829;28;20024;-83
2021/09/05 08:30:07;;;;;;;2.88;1.27;;;16.30;59.60;;;;;;5083918;28;20037;-84
2021/09/05 08:32:33;;;;;;;1.15;1.05;;;16.40;59.30;;;;;;5085013;28;20099;-82
2021/09/05 08:34:58;;;;;;;1.98;1.48;;;16.30;58.10;;;;;;5094138;28;20533;-83
2021/09/05 08:37:24;;;;;;;3.03;1.50;;;16.40;58.90;;;;;;5092712;28;20021;-84
2021/09/05 08:39:50;;;;;;;1.50;1.30;;;16.50;59.20;;;;;;5092990;28;20024;-84
2021/09/05 08:42:16;;;;;;;2.25;1.15;;;16.50;59.80;;;;;;5082272;28;20028;-84
2021/09/05 08:44:43;;;;;;;2.03;1.70;;;16.60;59.70;;;;;;5084811;28;20473;-84
2021/09/05 08:47:09;;;;;;;3.35;1.33;;;16.80;60.30;;;;;;5085859;28;20032;-84
2021/09/05 08:49:36;;;;;;;5.10;1.40;;;16.70;58.90;;;;;;5082317;28;20043;-84
2021/09/05 08:52:04;;;;;;;2.38;1.00;;;16.90;60.50;;;;;;5085466;28;20024;-84
2021/09/05 08:54:31;;;;;;;1.77;1.27;;;16.80;59.30;;;;;;5084679;28;20028;-84
2021/09/05 08:56:57;;;;;;;3.40;1.55;;;16.90;58.90;;;;;;5088895;28;20031;-84
2021/09/05 08:59:22;;;;;;;2.35;0.98;;;16.90;59.70;;;;;;5086802;28;20035;-84
2021/09/05 09:01:57;;;;;;;2.10;1.23;;;17.10;58.10;;;;;;5089663;28;20208;-83
2021/09/05 09:04:23;;;;;;;2.40;1.70;;;17.30;59.10;;;;;;5089341;28;20024;-84
2021/09/05 09:06:49;;;;;;;0.93;0.88;;;17.30;58.50;;;;;;5097392;28;20028;-84
2021/09/05 09:09:15;;;;;;;2.58;1.10;;;17.10;56.10;;;;;;5085965;28;20040;-85
2021/09/05 09:11:53;;;;;;;3.90;1.08;;;17.30;57.70;;;;;;5090185;28;20477;-84
2021/09/05 09:14:21;;;;;;;1.42;0.88;;;17.30;56.70;;;;;;5082968;28;20024;-84
2021/09/05 09:16:47;;;;;;;2.05;1.27;;;17.30;55.40;;;;;;5088120;28;20016;-83
2021/09/05 09:19:26;;;;;;;1.13;1.00;;;17.30;54.60;;;;;;5087373;28;20040;-84
2021/09/05 09:21:53;;;;;;;1.45;1.00;;;17.20;53.60;;;;;;5085593;28;20024;-84
2021/09/05 09:24:19;;;;;;;1.35;1.00;;;17.00;53.60;;;;;;5088614;28;20024;-84
2021/09/05 09:26:59;;;;;;;1.80;1.20;;;16.90;54.40;;;;;;5088196;28;20023;-84
2021/09/05 09:29:24;;;;;;;1.45;0.90;;;17.00;55.10;;;;;;5086405;28;20550;-84
2021/09/05 09:32:05;;;;;;;1.15;0.80;;;16.90;54.40;;;;;;5096538;28;20020;-83
2021/09/05 09:34:46;;;;;;;1.58;1.05;;;17.00;55.10;;;;;;5087681;28;20530;-83
2021/09/05 09:37:20;;;;;;;1.38;1.05;;;17.20;55.20;;;;;;5089399;28;20198;-84
2021/09/05 09:39:50;;;;;;;0.80;0.80;;;17.30;54.30;;;;;;5086997;28;20031;-83
2021/09/05 09:42:48;;;;;;;1.73;1.08;;;17.20;53.40;;;;;;5090969;28;20538;-84
2021/09/05 09:45:18;;;;;;;1.98;0.80;;;17.30;53.80;;;;;;5074583;28;20531;-85
2021/09/05 09:47:49;;;;;;;1.92;0.90;;;17.40;52.20;;;;;;5096850;28;20028;-84
2021/09/05 09:50:17;;;;;;;1.38;1.13;;;17.60;54.00;;;;;;5089656;28;20152;-85
2021/09/05 09:52:44;;;;;;;2.08;1.10;;;17.70;53.40;;;;;;5090915;28;20028;-84
2021/09/05 09:55:10;;;;;;;1.05;0.93;;;17.80;54.20;;;;;;5088428;28;20478;-85
2021/09/05 09:57:36;;;;;;;1.02;0.60;;;17.80;52.90;;;;;;5103637;28;20102;-84
2021/09/05 10:00:03;;;;;;;2.70;1.40;;;17.70;52.10;;;;;;5092297;28;20537;-85
2021/09/05 10:02:30;;;;;;;1.10;0.80;;;17.60;50.50;;;;;;5089743;28;20015;-83
2021/09/05 10:04:58;;;;;;;1.00;0.70;;;17.50;51.50;;;;;;5091841;28;20035;-84
2021/09/05 10:07:24;;;;;;;0.70;0.70;;;17.60;51.80;;;;;;5091490;28;20012;-84
2021/09/05 10:09:51;;;;;;;0.70;0.70;;;17.60;53.00;;;;;;5091338;28;20036;-84
2021/09/05 10:12:18;;;;;;;1.58;0.93;;;17.60;50.50;;;;;;5091357;28;20020;-84
2021/09/05 10:14:53;;;;;;;2.63;1.13;;;17.70;52.90;;;;;;5091490;28;20030;-84
2021/09/05 10:17:22;;;;;;;1.10;1.00;;;17.70;52.70;;;;;;5091010;28;20024;-84
2021/09/05 10:19:49;;;;;;;0.98;0.70;;;17.70;52.30;;;;;;5091016;28;20030;-85
2021/09/05 10:22:22;;;;;;;1.45;0.90;;;17.70;53.00;;;;;;5087366;28;20090;-84
2021/09/05 10:24:51;;;;;;;1.38;0.80;;;17.80;52.00;;;;;;5094468;28;20054;-84
2021/09/05 10:27:34;;;;;;;3.70;0.82;;;17.90;52.90;;;;;;5087408;28;20386;-85
2021/09/05 10:30:14;;;;;;;1.10;0.98;;;17.80;52.70;;;;;;5090333;28;20039;-83
2021/09/05 10:32:43;;;;;;;3.03;1.15;;;17.80;52.60;;;;;;5090693;28;20440;-84
2021/09/05 10:35:25;;;;;;;1.80;1.00;;;17.80;51.50;;;;;;5087876;28;20424;-82
2021/09/05 10:38:10;;;;;;;1.95;0.70;;;17.80;52.90;;;;;;5088114;28;20028;-83
2021/09/05 10:40:47;;;;;;;1.10;0.85;;;17.80;52.60;;;;;;5088244;28;20023;-83
2021/09/05 10:43:14;;;;;;;1.95;0.75;;;17.60;49.70;;;;;;5089491;28;20036;-80
2021/09/05 10:45:43;;;;;;;1.02;0.80;;;17.60;49.50;;;;;;5092409;28;20031;-81
2021/09/05 10:48:49;;;;;;;2.22;1.00;;;17.70;51.70;;;;;;5087816;28;20405;-82
2021/09/05 10:51:23;;;;;;;0.93;0.60;;;17.70;50.90;;;;;;5065957;28;20051;-81
2021/09/05 10:54:02;;;;;;;1.15;1.05;;;17.70;49.80;;;;;;5066685;28;20032;-82
2021/09/05 10:56:28;;;;;;;1.15;0.70;;;17.70;50.20;;;;;;5072879;28;20042;-82
2021/09/05 10:58:56;;;;;;;1.13;0.80;;;17.70;49.70;;;;;;5088350;28;20040;-82
2021/09/05 11:01:29;;;;;;;1.13;0.70;;;17.70;51.00;;;;;;5082280;28;20115;-81
2021/09/05 11:04:14;;;;;;;1.85;0.70;;;17.70;51.40;;;;;;5078596;28;20119;-81
2021/09/05 11:07:01;;;;;;;1.88;0.90;;;17.80;53.00;;;;;;5103281;28;20026;-80
2021/09/05 11:09:26;;;;;;;0.90;0.90;;;17.90;49.40;;;;;;5085533;28;20044;-82
2021/09/05 11:11:58;;;;;;;1.52;0.70;;;17.80;49.40;;;;;;5073785;28;20493;-81
2021/09/05 11:17:11;;;;;;;1.58;0.70;;;17.90;50.40;;;;;;5081845;28;20047;-80
2021/09/05 11:19:42;;;;;;;2.83;0.90;;;17.90;50.20;;;;;;5075295;28;20028;-82
2021/09/05 11:22:32;;;;;;;1.52;1.42;;;17.80;50.20;;;;;;5081638;28;20473;-83
2021/09/05 11:25:18;;;;;;;1.27;0.95;;;17.90;50.90;;;;;;5080692;28;20040;-83
2021/09/05 11:27:48;;;;;;;0.80;0.70;;;18.00;51.00;;;;;;5099475;28;20036;-83
2021/09/05 11:30:14;;;;;;;2.33;0.90;;;18.10;51.80;;;;;;5086008;28;20050;-83
2021/09/05 11:32:40;;;;;;;0.77;0.77;;;18.20;51.90;;;;;;5084128;28;20020;-83
2021/09/05 11:35:07;;;;;;;4.07;0.80;;;18.10;50.70;;;;;;5097502;28;20085;-83
2021/09/05 11:37:36;;;;;;;0.77;0.70;;;18.00;50.70;;;;;;5086705;28;20028;-83
2021/09/05 11:40:19;;;;;;;1.83;1.08;;;18.00;50.40;;;;;;5085776;28;20024;-82
2021/09/05 11:42:53;;;;;;;1.50;1.02;;;18.00;49.70;;;;;;5087561;28;20017;-83
2021/09/05 11:45:21;;;;;;;2.92;0.82;;;18.00;50.50;;;;;;5086104;28;20389;-83
2021/09/05 11:47:47;;;;;;;1.85;0.80;;;18.10;50.90;;;;;;5084041;28;20025;-82
2021/09/05 11:50:14;;;;;;;1.17;1.02;;;18.10;51.50;;;;;;5090158;28;20051;-82
2021/09/05 11:52:41;;;;;;;1.33;0.80;;;18.00;49.70;;;;;;5085885;28;20012;-82
2021/09/05 11:55:16;;;;;;;0.80;0.70;;;17.90;49.90;;;;;;5090360;28;20033;-82
2021/09/05 11:57:56;;;;;;;0.70;0.50;;;17.90;50.00;;;;;;5098542;28;20371;-82
2021/09/05 12:00:26;;;;;;;1.20;0.95;;;18.10;51.50;;;;;;5091656;28;20073;-82
2021/09/05 12:02:52;;;;;;;1.42;0.90;;;18.10;52.00;;;;;;5091552;28;20051;-82
2021/09/05 12:05:18;;;;;;;1.13;0.95;;;18.30;51.90;;;;;;5106209;28;20113;-82
2021/09/05 12:08:15;;;;;;;1.10;1.00;;;18.30;51.10;;;;;;5097994;28;20025;-82
2021/09/05 12:10:41;;;;;;;1.13;0.95;;;18.10;50.20;;;;;;5083375;28;20490;-82
2021/09/05 12:13:08;;;;;;;0.98;0.80;;;18.20;49.90;;;;;;5088978;28;20139;-82
2021/09/05 12:15:47;;;;;;;1.52;0.85;;;18.30;50.80;;;;;;5085276;28;20485;-84
2021/09/05 12:18:27;;;;;;;1.38;1.05;;;18.10;52.10;;;;;;5095154;28;20032;-82
2021/09/05 12:20:55;;;;;;;1.17;1.00;;;18.10;50.50;;;;;;5090768;28;20016;-83
2021/09/05 12:23:24;;;;;;;1.30;0.80;;;18.10;50.80;;;;;;5091314;28;20028;-82
2021/09/05 12:25:50;;;;;;;2.30;1.10;;;18.10;52.00;;;;;;5083521;28;20026;-84
2021/09/05 12:28:31;;;;;;;2.95;1.00;;;18.10;50.90;;;;;;5084302;28;20097;-84
2021/09/05 12:31:04;;;;;;;1.95;1.00;;;17.90;49.20;;;;;;5080957;28;20032;-83
2021/09/05 12:33:30;;;;;;;1.05;0.95;;;18.20;51.60;;;;;;5090828;28;20435;-84
2021/09/05 12:36:05;;;;;;;3.55;1.48;;;18.10;51.70;;;;;;5093220;28;20020;-83
2021/09/05 12:38:32;;;;;;;2.13;1.20;;;17.70;50.40;;;;;;5090042;28;20024;-83
2021/09/05 12:41:14;;;;;;;1.73;0.75;;;17.50;50.60;;;;;;5084988;28;20047;-83
2021/09/05 12:43:48;;;;;;;3.85;1.05;;;17.60;50.90;;;;;;5088600;28;20024;-84
2021/09/05 12:46:16;;;;;;;0.85;0.80;;;17.90;51.70;;;;;;5091307;28;20551;-83
2021/09/05 12:48:44;;;;;;;1.10;1.00;;;18.00;53.40;;;;;;5092137;28;20024;-83
2021/09/05 12:51:17;;;;;;;1.10;0.80;;;18.10;52.00;;;;;;5087973;28;20059;-84
2021/09/05 12:53:58;;;;;;;1.42;1.10;;;18.00;50.50;;;;;;5090742;28;20458;-83
2021/09/05 12:56:24;;;;;;;1.48;1.23;;;17.80;51.60;;;;;;5091638;28;20029;-83
2021/09/05 12:58:51;;;;;;;0.85;0.85;;;17.60;51.80;;;;;;5091087;28;20108;-83